createdAt,value
2022-09-03T06:56:15.180Z,2.30
2022-09-03T06:57:16.198Z,2.40
2022-09-03T06:58:15.019Z,2.30
2022-09-03T06:59:14.986Z,2.40
2022-09-03T07:00:14.970Z,2.50
2022-09-03T07:01:15.172Z,2.60
2022-09-03T07:02:15.090Z,2.40
2022-09-03T07:03:14.925Z,2.60
2022-09-03T07:04:14.945Z,2.30
2022-09-03T07:05:14.916Z,2.20
2022-09-03T07:06:14.909Z,2.60
2022-09-03T07:07:14.924Z,2.60
2022-09-03T07:08:14.911Z,2.50
2022-09-03T07:09:14.854Z,2.50
2022-09-03T07:10:14.834Z,2.30
2022-09-03T07:11:14.853Z,2.00
2022-09-03T07:12:14.905Z,2.30
2022-09-03T07:13:14.792Z,2.20
2022-09-03T07:14:14.857Z,2.50
2022-09-03T07:15:14.784Z,2.00
2022-09-03T07:16:14.763Z,2.40
2022-09-03T07:17:14.736Z,2.10
2022-09-03T07:18:14.753Z,2.30
2022-09-03T07:19:14.743Z,2.30
2022-09-03T07:20:14.710Z,2.00
2022-09-03T07:21:14.742Z,2.40
2022-09-03T07:22:14.670Z,2.30
2022-09-03T07:23:14.685Z,2.00
2022-09-03T07:24:14.655Z,2.10
2022-09-03T07:25:14.639Z,2.10
2022-09-03T07:26:14.658Z,2.10
2022-09-03T07:27:15.235Z,2.20
2022-09-03T07:28:14.611Z,2.20
2022-09-03T07:29:14.580Z,1.90
2022-09-03T07:30:14.568Z,2.20
2022-09-03T07:31:14.623Z,2.10
2022-09-03T08:51:57.480Z,3.00
2022-09-03T08:52:58.444Z,2.60
2022-09-03T08:53:57.294Z,3.00
2022-09-03T08:54:57.255Z,3.00
2022-09-03T08:55:57.183Z,3.20
2022-09-03T08:56:57.234Z,3.10
2022-09-03T08:57:57.176Z,2.60
2022-09-03T08:58:57.259Z,2.70
2022-09-03T08:59:57.156Z,3.10
2022-09-03T09:00:57.181Z,2.90
2022-09-03T09:01:57.311Z,2.70
2022-09-03T09:02:57.142Z,2.70
2022-09-03T09:03:57.136Z,2.90
2022-09-03T09:04:57.102Z,2.90
2022-09-03T09:05:57.035Z,3.00
2022-09-03T09:06:57.032Z,2.50
2022-09-03T09:07:57.004Z,2.40
2022-09-03T09:08:57.023Z,2.80
2022-09-03T09:09:56.990Z,2.30
2022-09-03T09:10:57.001Z,2.50
2022-09-03T09:11:56.967Z,2.40
2022-09-03T09:12:56.963Z,2.60
2022-09-03T09:13:56.954Z,2.70
2022-09-03T09:14:56.960Z,2.60
2022-09-03T09:15:57.050Z,2.40
2022-09-03T09:16:56.910Z,2.40
2022-09-03T09:17:56.899Z,2.20
2022-09-03T09:18:56.883Z,2.40
2022-09-03T09:19:56.851Z,2.30
2022-09-03T09:20:56.841Z,2.50
2022-09-03T09:21:56.867Z,2.60
2022-09-03T09:22:56.855Z,2.50
2022-09-03T09:23:56.840Z,2.50
2022-09-03T09:24:56.791Z,2.60
2022-09-03T09:25:56.835Z,2.70
2022-09-03T09:26:56.795Z,3.00
2022-09-03T09:27:56.858Z,2.90
2022-09-03T09:28:56.843Z,3.30
2022-09-03T09:29:56.731Z,3.10
2022-09-03T09:30:56.852Z,3.10
2022-09-03T09:31:56.701Z,3.20
2022-09-03T09:32:56.761Z,3.10
2022-09-03T09:33:56.696Z,3.40
2022-09-03T09:34:56.679Z,3.80
2022-09-03T09:35:56.642Z,3.60
2022-09-03T09:36:57.430Z,3.50
2022-09-03T09:37:56.617Z,3.70
2022-09-03T09:38:56.608Z,3.40
2022-09-03T09:39:56.699Z,3.40
2022-09-03T09:40:56.599Z,3.70
2022-09-03T09:41:56.592Z,4.10
2022-09-03T09:42:56.557Z,4.50
2022-09-03T09:43:56.594Z,5.00
2022-09-03T09:44:56.557Z,4.90
2022-09-03T09:45:56.607Z,5.00
2022-09-03T09:46:56.550Z,4.80
2022-09-03T09:47:56.483Z,4.90
2022-09-03T09:48:56.482Z,5.20
2022-09-03T09:49:56.473Z,5.10
2022-09-03T09:50:56.455Z,4.90
2022-09-03T09:51:57.054Z,3.40
2022-09-03T09:52:59.134Z,3.70
2022-09-03T09:53:56.422Z,3.90
2022-09-03T09:54:56.367Z,3.60
2022-09-03T09:55:56.390Z,3.10
2022-09-03T09:56:56.384Z,3.10
2022-09-03T09:57:56.363Z,3.70
2022-09-03T09:58:56.332Z,3.40
2022-09-03T14:17:48.631Z,0.90
2022-09-03T14:18:49.187Z,0.90
2022-09-03T14:19:49.102Z,1.00
2022-09-03T14:20:48.979Z,1.10
2022-09-03T14:21:48.138Z,1.10
2022-09-03T14:22:47.895Z,1.10
2022-09-03T14:23:47.943Z,1.10
2022-09-03T14:24:47.905Z,1.20
2022-09-03T14:25:48.093Z,1.10
2022-09-03T14:26:47.937Z,1.00
2022-09-03T14:27:47.925Z,1.10
2022-09-03T14:28:47.845Z,1.10
2022-09-03T14:29:48.131Z,1.00
2022-09-03T14:30:47.861Z,1.10
2022-09-03T14:31:48.866Z,1.10
2022-09-03T14:32:47.843Z,1.20
2022-09-03T14:33:48.090Z,1.00
2022-09-03T14:34:47.747Z,1.10
2022-09-03T14:35:48.019Z,1.20
2022-09-03T14:36:59.970Z,1.10
2022-09-03T14:38:08.966Z,1.20
2022-09-03T14:38:48.526Z,1.20
2022-09-03T14:40:21.469Z,1.20
2022-09-03T14:40:50.934Z,1.10
2022-09-03T14:41:48.031Z,1.10
2022-09-03T14:43:18.002Z,1.20
2022-09-03T14:44:20.267Z,1.20
2022-09-03T14:44:48.484Z,1.10
2022-09-03T14:45:48.225Z,1.10
2022-09-03T14:46:48.037Z,1.30
2022-09-03T14:47:48.360Z,1.30
2022-09-03T14:49:00.292Z,1.50
2022-09-03T14:50:09.417Z,1.30
2022-09-03T14:50:47.618Z,1.60
2022-09-03T14:51:50.489Z,1.40
2022-09-03T14:52:54.991Z,1.50
2022-09-03T14:53:58.497Z,1.40
2022-09-03T14:54:48.114Z,1.30
2022-09-03T14:55:47.568Z,1.50
2022-09-03T14:57:12.902Z,1.30
2022-09-03T14:57:52.089Z,1.40
2022-09-03T14:59:10.513Z,1.30
2022-09-03T14:59:48.226Z,1.40
2022-09-03T15:00:49.048Z,1.60
2022-09-03T15:01:47.664Z,1.40
2022-09-03T15:02:47.473Z,1.50
2022-09-03T15:03:48.137Z,1.50
2022-09-03T15:04:49.399Z,1.40
2022-09-03T15:05:53.366Z,1.30
2022-09-03T15:06:51.898Z,1.40
2022-09-03T15:07:52.092Z,1.30
2022-09-03T15:08:47.695Z,1.60
2022-09-03T15:10:14.598Z,1.60
2022-09-03T15:10:47.803Z,1.40
2022-09-03T15:11:48.289Z,1.40
2022-09-03T15:12:57.393Z,1.50
2022-09-03T15:13:57.578Z,1.50
2022-09-03T15:14:56.457Z,1.40
2022-09-03T15:15:47.269Z,1.60
2022-09-03T15:16:47.289Z,1.60
